createdAt,value
2023-04-29T00:01:46.173Z,2.63
2023-04-29T00:04:14.114Z,2.93
2023-04-29T00:06:42.137Z,2.40
2023-04-29T00:09:09.831Z,2.70
2023-04-29T00:11:37.558Z,2.87
2023-04-29T00:14:05.496Z,2.87
2023-04-29T00:16:34.613Z,2.53
2023-04-29T00:19:02.356Z,2.93
2023-04-29T00:21:30.297Z,2.80
2023-04-29T00:23:58.017Z,2.27
2023-04-29T00:26:25.869Z,2.43
2023-04-29T00:28:53.863Z,3.17
2023-04-29T00:31:21.911Z,2.80
2023-04-29T00:33:51.082Z,3.43
2023-04-29T00:36:18.791Z,3.23
2023-04-29T00:38:46.515Z,3.23
2023-04-29T00:41:14.940Z,3.10
2023-04-29T00:43:42.680Z,3.10
2023-04-29T00:46:10.474Z,3.93
2023-04-29T00:48:38.297Z,3.07
2023-04-29T00:51:08.512Z,3.37
2023-04-29T00:53:36.678Z,2.83
2023-04-29T00:56:04.659Z,2.97
2023-04-29T00:58:35.140Z,3.13
2023-04-29T01:01:03.759Z,2.77
2023-04-29T01:03:32.482Z,3.53
2023-04-29T01:06:21.969Z,3.23
2023-04-29T01:09:02.941Z,2.80
2023-04-29T01:11:36.207Z,3.80
2023-04-29T01:14:04.694Z,3.43
2023-04-29T01:16:39.236Z,3.23
2023-04-29T01:19:17.894Z,3.07
2023-04-29T01:21:50.540Z,2.90
2023-04-29T01:24:19.748Z,3.27
2023-04-29T01:26:52.888Z,3.47
2023-04-29T01:29:33.983Z,3.07
2023-04-29T01:32:08.952Z,3.27
2023-04-29T01:34:43.469Z,3.23
2023-04-29T01:37:19.363Z,2.70
2023-04-29T01:39:58.781Z,3.23
2023-04-29T01:42:35.712Z,3.33
2023-04-29T01:45:07.899Z,3.93
2023-04-29T01:47:37.577Z,3.63
2023-04-29T01:50:06.162Z,3.57
2023-04-29T01:52:33.874Z,3.27
2023-04-29T01:55:03.511Z,3.47
2023-04-29T01:57:31.265Z,3.60
2023-04-29T01:59:58.936Z,3.00
2023-04-29T02:02:26.830Z,3.87
2023-04-29T02:04:54.727Z,4.03
2023-04-29T02:07:22.915Z,4.00
2023-04-29T02:09:51.137Z,3.73
2023-04-29T02:12:20.650Z,3.20
2023-04-29T02:14:48.823Z,2.73
2023-04-29T02:17:16.591Z,3.47
2023-04-29T02:19:44.340Z,3.33
2023-04-29T02:22:12.412Z,4.17
2023-04-29T02:24:40.142Z,3.57
2023-04-29T02:27:10.594Z,3.77
2023-04-29T02:29:39.764Z,3.50
2023-04-29T02:32:07.598Z,4.33
2023-04-29T02:34:35.597Z,3.67
2023-04-29T02:37:03.300Z,3.63
2023-04-29T02:39:31.464Z,4.00
2023-04-29T02:41:59.281Z,3.33
2023-04-29T02:44:27.074Z,3.70
2023-04-29T02:46:56.170Z,4.00
2023-04-29T02:49:23.857Z,3.77
2023-04-29T02:51:51.981Z,3.53
2023-04-29T02:54:19.742Z,3.97
2023-04-29T02:56:47.434Z,3.30
2023-04-29T02:59:15.124Z,3.27
2023-04-29T03:01:43.405Z,4.27
2023-04-29T03:04:12.762Z,3.53
2023-04-29T03:06:40.625Z,3.03
2023-04-29T03:09:08.383Z,3.60
2023-04-29T03:11:36.103Z,3.43
2023-04-29T03:14:04.062Z,4.13
2023-04-29T03:16:31.913Z,3.23
2023-04-29T03:18:59.617Z,3.67
2023-04-29T03:21:29.783Z,3.03
2023-04-29T03:23:57.834Z,3.43
2023-04-29T03:26:25.661Z,3.80
2023-04-29T03:28:53.731Z,4.00
2023-04-29T03:31:23.245Z,3.67
2023-04-29T03:33:53.423Z,3.33
2023-04-29T03:36:21.228Z,4.13
2023-04-29T03:38:50.258Z,3.20
2023-04-29T03:41:18.396Z,3.10
2023-04-29T03:43:46.170Z,4.33
2023-04-29T03:46:14.005Z,3.43
2023-04-29T03:48:41.785Z,4.17
2023-04-29T03:51:10.040Z,3.80
2023-04-29T03:53:38.216Z,3.67
2023-04-29T03:56:07.926Z,3.13
2023-04-29T03:58:35.793Z,4.30
2023-04-29T04:01:03.915Z,3.80
2023-04-29T04:03:32.694Z,4.20
2023-04-29T04:06:00.588Z,4.00
2023-04-29T04:08:28.332Z,3.60
2023-04-29T04:11:02.660Z,3.80
2023-04-29T04:13:31.761Z,4.13
2023-04-29T04:15:59.746Z,3.20
2023-04-29T04:18:27.586Z,4.47
2023-04-29T04:20:55.689Z,3.70
2023-04-29T04:23:24.223Z,3.90
2023-04-29T04:25:53.383Z,3.47
2023-04-29T04:28:21.090Z,3.40
2023-04-29T04:30:50.851Z,3.43
2023-04-29T04:33:18.637Z,3.37
2023-04-29T04:35:46.390Z,3.63
2023-04-29T04:38:15.171Z,3.73
2023-04-29T04:40:43.689Z,3.53
2023-04-29T04:43:11.596Z,3.70
2023-04-29T04:45:39.296Z,3.83
2023-04-29T04:48:08.633Z,3.30
2023-04-29T04:50:36.751Z,3.00
2023-04-29T04:53:04.517Z,2.63
2023-04-29T04:55:33.465Z,3.90
2023-04-29T04:58:01.264Z,3.63
2023-04-29T05:00:29.053Z,3.53
2023-04-29T05:02:56.831Z,3.93
2023-04-29T05:05:26.372Z,3.27
2023-04-29T05:07:54.102Z,3.23
2023-04-29T05:10:26.311Z,3.80
2023-04-29T05:12:54.084Z,3.53
2023-04-29T05:15:21.956Z,3.60
2023-04-29T05:17:49.710Z,3.67
2023-04-29T05:20:17.529Z,4.00
2023-04-29T05:22:46.724Z,3.30
2023-04-29T05:25:14.465Z,3.33
2023-04-29T05:27:46.681Z,3.57
2023-04-29T05:30:14.410Z,3.70
2023-04-29T05:32:42.216Z,3.90
2023-04-29T05:35:10.503Z,3.20
2023-04-29T05:37:38.377Z,4.07
2023-04-29T05:40:09.733Z,3.33
2023-04-29T05:42:37.431Z,2.97
2023-04-29T05:45:06.031Z,3.87
2023-04-29T05:47:36.893Z,3.20
2023-04-29T05:50:05.065Z,2.87
2023-04-29T05:52:32.890Z,3.67
2023-04-29T05:55:00.621Z,4.30
2023-04-29T05:57:29.722Z,3.70
2023-04-29T05:59:59.545Z,4.20
2023-04-29T06:02:27.396Z,3.37
2023-04-29T06:04:55.398Z,3.90
2023-04-29T06:07:23.984Z,3.07
2023-04-29T06:09:52.221Z,3.93
2023-04-29T06:12:20.061Z,3.80
2023-04-29T06:14:49.150Z,3.67
2023-04-29T06:17:17.250Z,3.30
2023-04-29T06:19:44.982Z,3.10
2023-04-29T06:22:12.746Z,3.43
2023-04-29T06:24:40.420Z,3.27
2023-04-29T06:27:08.216Z,3.27
2023-04-29T06:29:36.045Z,3.17
2023-04-29T06:32:05.546Z,3.70
2023-04-29T06:34:33.397Z,3.17
2023-04-29T06:37:01.119Z,2.97
2023-04-29T06:39:28.944Z,2.70
2023-04-29T06:41:58.760Z,2.73
2023-04-29T06:44:27.534Z,3.30
2023-04-29T06:46:55.331Z,3.30
2023-04-29T06:49:24.424Z,3.00
2023-04-29T06:51:52.138Z,2.60
2023-04-29T06:54:19.848Z,3.03
2023-04-29T06:56:48.246Z,2.67
2023-04-29T06:59:15.997Z,2.73
2023-04-29T07:01:44.661Z,2.60
2023-04-29T07:04:13.605Z,2.53
2023-04-29T07:06:46.665Z,2.70
2023-04-29T07:09:14.828Z,2.80
2023-04-29T07:11:42.713Z,1.70
2023-04-29T07:14:10.714Z,2.33
2023-04-29T07:16:38.841Z,1.80
2023-04-29T07:19:15.106Z,2.47
2023-04-29T07:21:44.570Z,2.23
2023-04-29T07:24:12.273Z,2.30
2023-04-29T07:26:40.637Z,2.10
2023-04-29T07:29:08.394Z,1.77
2023-04-29T07:31:38.165Z,2.20
2023-04-29T07:34:06.427Z,2.27
2023-04-29T07:36:34.730Z,2.07
2023-04-29T07:39:04.881Z,2.50
2023-04-29T07:41:32.753Z,2.60
2023-04-29T07:44:00.613Z,2.17
2023-04-29T07:46:28.705Z,2.50
2023-04-29T07:48:56.501Z,2.37
2023-04-29T07:51:24.185Z,2.20
2023-04-29T07:53:51.911Z,2.03
2023-04-29T07:56:21.588Z,2.33
2023-04-29T07:58:49.283Z,2.47
2023-04-29T08:01:17.001Z,2.03
2023-04-29T08:03:45.265Z,2.87
2023-04-29T08:06:13.292Z,2.27
2023-04-29T08:08:41.286Z,1.90
2023-04-29T08:11:09.182Z,2.47
2023-04-29T08:13:38.442Z,2.27
2023-04-29T08:16:06.597Z,2.40
2023-04-29T08:18:34.459Z,1.70
2023-04-29T08:21:02.441Z,1.63
2023-04-29T08:23:30.250Z,1.87
2023-04-29T08:25:58.320Z,2.10
2023-04-29T08:28:26.239Z,2.70
2023-04-29T08:30:55.399Z,2.13
2023-04-29T08:33:23.254Z,1.47
2023-04-29T08:35:58.452Z,2.07
2023-04-29T08:38:26.380Z,2.00
2023-04-29T08:40:54.128Z,2.33
2023-04-29T08:43:22.547Z,2.60
2023-04-29T08:45:51.143Z,2.00
2023-04-29T08:48:20.861Z,2.33
2023-04-29T08:50:48.971Z,1.87
2023-04-29T08:53:16.704Z,1.47
2023-04-29T08:55:46.631Z,2.23
2023-04-29T08:58:16.357Z,1.93
2023-04-29T09:00:45.878Z,1.83
2023-04-29T09:03:20.325Z,2.03
2023-04-29T09:05:57.017Z,2.13
2023-04-29T09:08:29.968Z,2.30
2023-04-29T09:10:59.168Z,2.73
2023-04-29T09:13:27.973Z,1.93
2023-04-29T09:15:56.081Z,2.47
2023-04-29T09:18:43.654Z,2.17
2023-04-29T09:21:19.657Z,2.57
2023-04-29T09:23:50.551Z,2.47
2023-04-29T09:26:18.408Z,2.13
2023-04-29T09:28:47.647Z,2.07
2023-04-29T09:31:15.776Z,2.37
2023-04-29T09:33:54.404Z,2.30
2023-04-29T09:36:39.504Z,2.50
2023-04-29T09:39:11.443Z,1.73
2023-04-29T09:42:02.452Z,2.63
2023-04-29T09:44:34.301Z,2.07
2023-04-29T09:47:04.111Z,2.27
2023-04-29T09:49:37.614Z,2.57
2023-04-29T09:52:08.828Z,2.40
2023-04-29T09:54:40.725Z,2.70
2023-04-29T09:57:09.685Z,2.20
2023-04-29T09:59:39.649Z,2.20
2023-04-29T10:02:11.835Z,2.53
2023-04-29T10:04:42.939Z,1.80
2023-04-29T10:07:16.113Z,2.37
2023-04-29T10:09:46.061Z,2.43
2023-04-29T10:12:17.486Z,1.67
2023-04-29T10:14:49.147Z,1.70
2023-04-29T10:17:22.093Z,1.67
2023-04-29T10:19:59.284Z,1.80
2023-04-29T10:22:37.306Z,1.90
2023-04-29T10:25:08.564Z,2.00
2023-04-29T10:27:38.604Z,2.40
2023-04-29T10:30:10.123Z,3.10
2023-04-29T10:32:50.463Z,2.20
2023-04-29T10:35:22.745Z,2.10
2023-04-29T10:37:53.172Z,2.90
2023-04-29T10:40:25.704Z,1.90
2023-04-29T10:42:56.377Z,2.23
2023-04-29T10:45:26.900Z,2.13
2023-04-29T10:48:14.894Z,2.22
2023-04-29T10:51:04.520Z,2.30
2023-04-29T10:53:34.380Z,2.20
2023-04-29T10:56:08.562Z,2.30
2023-04-29T10:58:38.411Z,2.67
2023-04-29T11:01:07.804Z,2.20
2023-04-29T11:03:55.536Z,2.90
2023-04-29T11:06:25.420Z,3.03
2023-04-29T11:09:05.216Z,2.57
2023-04-29T11:11:43.979Z,2.67
2023-04-29T11:14:13.605Z,2.40
2023-04-29T11:16:49.403Z,2.70
2023-04-29T11:19:18.606Z,2.80
2023-04-29T11:21:47.807Z,2.33
2023-04-29T11:24:17.457Z,2.50
2023-04-29T11:26:46.261Z,3.07
2023-04-29T11:29:14.133Z,2.53
2023-04-29T11:31:42.004Z,2.73
2023-04-29T11:34:09.700Z,2.83
2023-04-29T11:36:37.618Z,3.15
2023-04-29T11:39:05.730Z,3.33
2023-04-29T11:41:35.832Z,2.47
2023-04-29T11:44:04.899Z,2.72
2023-04-29T11:46:33.053Z,2.88
2023-04-29T11:49:01.334Z,3.45
2023-04-29T11:51:29.478Z,3.47
2023-04-29T11:53:57.957Z,2.83
2023-04-29T11:56:26.251Z,3.13
2023-04-29T11:59:01.392Z,2.70
2023-04-29T12:01:29.331Z,2.50
2023-04-29T12:04:00.998Z,3.28
2023-04-29T12:06:30.068Z,2.70
2023-04-29T12:09:00.319Z,2.83
2023-04-29T12:11:28.893Z,2.95
2023-04-29T12:13:58.669Z,3.10
2023-04-29T12:16:29.423Z,2.30
2023-04-29T12:18:58.577Z,2.58
2023-04-29T12:21:27.380Z,2.05
2023-04-29T12:23:55.341Z,2.53
2023-04-29T12:26:23.059Z,2.35
2023-04-29T12:28:55.485Z,2.50
2023-04-29T12:31:25.139Z,2.10
2023-04-29T12:33:56.310Z,2.30
2023-04-29T12:36:24.458Z,1.85
2023-04-29T12:38:55.512Z,1.85
2023-04-29T12:41:37.874Z,2.08
2023-04-29T12:44:06.926Z,1.52
2023-04-29T12:46:40.546Z,1.60
2023-04-29T12:49:08.928Z,1.65
2023-04-29T12:51:37.170Z,1.55
2023-04-29T12:54:06.881Z,1.37
2023-04-29T12:56:34.777Z,2.70
2023-04-29T12:59:10.284Z,1.75
2023-04-29T13:01:40.234Z,1.85
2023-04-29T13:04:09.419Z,1.70
2023-04-29T13:06:40.954Z,1.85
2023-04-29T13:09:17.065Z,2.42
2023-04-29T13:11:46.504Z,1.88
2023-04-29T13:14:14.303Z,2.10
2023-04-29T13:16:43.381Z,1.67
2023-04-29T13:19:29.478Z,1.50
2023-04-29T13:21:59.093Z,1.42
2023-04-29T13:24:27.169Z,1.77
2023-04-29T13:26:55.221Z,2.10
2023-04-29T13:29:23.998Z,1.73
2023-04-29T13:31:53.416Z,1.83
2023-04-29T13:34:21.536Z,1.38
2023-04-29T13:36:49.300Z,1.33
2023-04-29T13:39:17.519Z,1.27
2023-04-29T13:41:46.113Z,1.20
2023-04-29T13:46:47.460Z,1.23
2023-04-29T13:49:42.300Z,1.45
2023-04-29T13:52:58.438Z,1.30
2023-04-29T13:59:55.241Z,1.35
2023-04-29T14:02:25.964Z,0.95
2023-04-29T14:04:55.991Z,1.77
2023-04-29T14:07:24.389Z,1.40
2023-04-29T14:09:52.150Z,1.75
2023-04-29T14:12:19.895Z,1.60
2023-04-29T14:14:47.658Z,1.50
2023-04-29T14:17:15.718Z,1.10
2023-04-29T14:19:43.401Z,1.50
2023-04-29T14:22:12.410Z,1.20
2023-04-29T14:24:40.378Z,1.10
2023-04-29T14:27:08.127Z,1.37
2023-04-29T14:29:35.852Z,1.40
2023-04-29T14:32:03.842Z,1.40
2023-04-29T14:34:31.586Z,1.10
2023-04-29T14:36:59.328Z,1.15
2023-04-29T14:39:28.418Z,1.35
2023-04-29T14:41:56.342Z,1.15
2023-04-29T14:44:24.038Z,1.58
2023-04-29T14:46:52.271Z,1.17
2023-04-29T14:49:20.024Z,1.13
2023-04-29T14:51:47.734Z,1.50
2023-04-29T14:54:16.310Z,1.30
2023-04-29T14:56:45.441Z,1.30
2023-04-29T14:59:13.310Z,1.10
2023-04-29T15:01:41.114Z,1.10
2023-04-29T15:04:08.918Z,0.87
2023-04-29T15:06:36.972Z,1.00
2023-04-29T15:09:04.996Z,0.73
2023-04-29T15:11:32.979Z,0.73
2023-04-29T15:14:02.092Z,0.73
2023-04-29T15:16:31.611Z,0.90
2023-04-29T15:18:59.631Z,1.33
2023-04-29T15:21:28.024Z,0.90
2023-04-29T15:23:55.982Z,0.80
2023-04-29T15:26:24.139Z,1.10
2023-04-29T15:28:52.120Z,0.70
2023-04-29T15:31:22.895Z,1.00
2023-04-29T15:33:55.056Z,1.10
2023-04-29T15:36:29.371Z,0.90
2023-04-29T15:38:57.300Z,0.93
2023-04-29T15:41:26.910Z,1.10
2023-04-29T15:43:54.828Z,1.07
2023-04-29T15:46:24.560Z,1.07
2023-04-29T15:48:52.303Z,1.00
2023-04-29T15:51:20.200Z,0.80
2023-04-29T15:53:48.960Z,1.07
2023-04-29T15:56:16.916Z,0.87
2023-04-29T15:58:44.711Z,1.07
2023-04-29T16:01:12.619Z,1.27
2023-04-29T16:03:41.691Z,0.77
2023-04-29T16:06:09.554Z,0.90
2023-04-29T16:08:37.378Z,0.90
2023-04-29T16:11:05.117Z,1.20
2023-04-29T16:13:34.976Z,1.10
2023-04-29T16:16:04.018Z,0.80
2023-04-29T16:18:32.464Z,0.90
2023-04-29T16:21:02.707Z,1.00
2023-04-29T16:23:30.730Z,0.90
2023-04-29T16:26:00.678Z,0.70
2023-04-29T16:28:30.120Z,1.10
2023-04-29T16:30:57.928Z,1.07
2023-04-29T16:33:27.380Z,0.90
2023-04-29T16:35:58.356Z,0.77
2023-04-29T16:38:28.264Z,0.70
2023-04-29T16:40:58.719Z,0.40
2023-04-29T16:43:26.713Z,1.37
2023-04-29T16:45:55.951Z,0.70
2023-04-29T16:48:23.986Z,1.00
2023-04-29T16:50:51.749Z,0.70
2023-04-29T16:53:20.696Z,0.70
2023-04-29T16:55:51.868Z,0.80
2023-04-29T16:58:22.908Z,0.80
2023-04-29T17:00:52.944Z,0.70
2023-04-29T17:03:21.960Z,0.80
2023-04-29T17:05:50.140Z,0.90
2023-04-29T17:08:18.228Z,0.77
2023-04-29T17:10:46.121Z,0.77
2023-04-29T17:13:19.934Z,0.90
2023-04-29T17:15:50.410Z,0.93
2023-04-29T17:18:19.460Z,0.77
2023-04-29T17:20:50.970Z,0.90
2023-04-29T17:23:19.328Z,0.90
2023-04-29T17:25:47.504Z,0.83
2023-04-29T17:28:16.966Z,0.67
2023-04-29T17:30:56.412Z,0.77
2023-04-29T17:33:33.575Z,0.90
2023-04-29T17:36:02.056Z,0.67
2023-04-29T17:38:33.096Z,0.93
2023-04-29T17:41:02.704Z,0.97
2023-04-29T17:43:36.402Z,0.90
2023-04-29T17:46:04.703Z,0.70
2023-04-29T17:48:35.077Z,0.90
2023-04-29T17:51:02.931Z,0.70
2023-04-29T17:53:33.028Z,0.67
2023-04-29T17:56:01.078Z,0.70
2023-04-29T17:58:29.979Z,0.90
2023-04-29T18:00:59.258Z,0.70
2023-04-29T18:03:32.740Z,0.50
2023-04-29T18:06:03.286Z,1.17
2023-04-29T18:08:31.807Z,0.50
2023-04-29T18:11:01.262Z,0.40
2023-04-29T18:13:31.513Z,1.00
2023-04-29T18:16:02.220Z,0.70
2023-04-29T18:18:30.026Z,0.90
2023-04-29T18:20:57.796Z,0.90
2023-04-29T18:23:25.873Z,1.47
2023-04-29T18:25:55.428Z,1.10
2023-04-29T18:28:25.981Z,0.60
2023-04-29T18:31:03.754Z,0.97
2023-04-29T18:33:36.290Z,0.80
2023-04-29T18:36:04.774Z,0.90
2023-04-29T18:38:32.956Z,0.83
2023-04-29T18:41:00.937Z,0.73
2023-04-29T18:43:29.360Z,0.83
2023-04-29T18:46:01.732Z,0.60
2023-04-29T18:48:29.818Z,1.10
2023-04-29T18:51:04.514Z,0.50
2023-04-29T18:53:32.719Z,0.53
2023-04-29T18:56:00.733Z,0.70
2023-04-29T18:58:28.929Z,1.00
2023-04-29T19:00:58.033Z,0.80
2023-04-29T19:03:27.073Z,0.93
2023-04-29T19:05:56.558Z,0.90
2023-04-29T19:08:25.858Z,0.73
2023-04-29T19:10:55.370Z,0.80
2023-04-29T19:13:23.120Z,0.67
2023-04-29T19:15:53.868Z,1.90
2023-04-29T19:18:25.274Z,1.40
2023-04-29T19:20:56.013Z,1.37
2023-04-29T19:23:26.167Z,2.10
2023-04-29T19:25:54.920Z,1.13
2023-04-29T19:28:22.965Z,2.30
2023-04-29T19:30:50.830Z,2.60
2023-04-29T19:33:18.562Z,1.80
2023-04-29T19:35:46.307Z,1.40
2023-04-29T19:38:14.132Z,2.13
2023-04-29T19:40:43.213Z,0.90
2023-04-29T19:43:10.975Z,1.10
2023-04-29T19:45:38.689Z,1.53
2023-04-29T19:48:06.976Z,1.60
2023-04-29T19:50:34.900Z,1.97
2023-04-29T19:53:02.749Z,1.43
2023-04-29T19:55:30.520Z,1.10
2023-04-29T19:57:59.527Z,1.00
2023-04-29T20:00:27.247Z,0.90
2023-04-29T20:02:55.090Z,0.90
2023-04-29T20:05:23.539Z,1.50
2023-04-29T20:07:51.413Z,1.27
2023-04-29T20:10:19.112Z,1.20
2023-04-29T20:12:47.377Z,1.00
2023-04-29T20:15:16.405Z,0.80
2023-04-29T20:17:44.335Z,0.67
2023-04-29T20:20:12.568Z,1.20
2023-04-29T20:22:40.497Z,0.87
2023-04-29T20:25:08.671Z,0.70
2023-04-29T20:27:36.496Z,0.83
2023-04-29T20:30:05.356Z,0.50
2023-04-29T20:32:34.404Z,0.60
2023-04-29T20:35:02.217Z,0.83
2023-04-29T20:37:31.641Z,0.80
2023-04-29T20:39:59.429Z,0.73
2023-04-29T20:42:27.160Z,0.60
2023-04-29T20:44:54.944Z,0.50
2023-04-29T20:47:22.706Z,0.50
2023-04-29T20:49:52.088Z,0.60
2023-04-29T20:52:20.296Z,0.50
2023-04-29T20:54:51.935Z,0.93
2023-04-29T20:57:19.699Z,0.60
2023-04-29T20:59:47.384Z,0.43
2023-04-29T21:02:15.800Z,0.80
2023-04-29T21:04:43.665Z,0.70
2023-04-29T21:07:12.939Z,0.80
2023-04-29T21:09:40.671Z,0.90
2023-04-29T21:12:08.402Z,1.53
2023-04-29T21:14:37.384Z,0.73
2023-04-29T21:17:05.198Z,1.27
2023-04-29T21:19:32.900Z,1.10
2023-04-29T21:22:01.294Z,0.97
2023-04-29T21:24:31.382Z,1.13
2023-04-29T21:26:59.102Z,0.93
2023-04-29T21:29:27.012Z,0.90
2023-04-29T21:31:54.957Z,1.27
2023-04-29T21:34:22.996Z,1.20
2023-04-29T21:36:50.760Z,1.17
2023-04-29T21:39:18.703Z,1.00
2023-04-29T21:41:47.872Z,0.87
2023-04-29T21:44:15.830Z,1.20
2023-04-29T21:46:44.222Z,0.80
2023-04-29T21:49:12.071Z,1.47
2023-04-29T21:51:39.838Z,1.13
2023-04-29T21:54:08.502Z,0.97
2023-04-29T21:56:36.526Z,1.30
2023-04-29T21:59:05.584Z,1.33
2023-04-29T22:01:47.755Z,1.10
2023-04-29T22:04:16.421Z,1.17
2023-04-29T22:06:44.431Z,1.30
2023-04-29T22:09:12.220Z,1.10
2023-04-29T22:11:39.902Z,1.33
2023-04-29T22:14:09.123Z,1.17
2023-04-29T22:16:37.974Z,1.57
2023-04-29T22:19:07.069Z,1.30
2023-04-29T22:21:34.905Z,0.90
2023-04-29T22:24:03.210Z,1.00
2023-04-29T22:26:31.168Z,0.70
2023-04-29T22:28:58.882Z,0.80
2023-04-29T22:31:28.764Z,0.80
2023-04-29T22:33:56.442Z,1.00
2023-04-29T22:36:24.209Z,0.90
2023-04-29T22:38:52.024Z,0.70
2023-04-29T22:41:19.808Z,1.57
2023-04-29T22:43:47.511Z,0.73
2023-04-29T22:46:15.313Z,1.10
2023-04-29T22:48:44.403Z,1.10
2023-04-29T22:51:12.188Z,1.03
2023-04-29T22:53:39.894Z,0.97
2023-04-29T22:56:08.859Z,0.70
2023-04-29T22:58:36.608Z,1.30
2023-04-29T23:01:04.326Z,1.27
2023-04-29T23:03:32.072Z,0.83
2023-04-29T23:06:02.483Z,1.30
2023-04-29T23:08:30.420Z,1.30
2023-04-29T23:10:58.366Z,1.10
2023-04-29T23:13:26.036Z,1.10
2023-04-29T23:15:56.547Z,0.97
2023-04-29T23:18:24.391Z,1.10
2023-04-29T23:20:52.912Z,0.73
2023-04-29T23:23:22.156Z,0.90
2023-04-29T23:25:49.949Z,0.80
2023-04-29T23:28:17.674Z,0.97
2023-04-29T23:30:47.456Z,0.90
2023-04-29T23:33:15.308Z,1.40
2023-04-29T23:35:43.083Z,0.77
2023-04-29T23:38:10.971Z,1.30
2023-04-29T23:40:40.051Z,0.87
2023-04-29T23:43:07.759Z,0.90
2023-04-29T23:45:35.514Z,0.90
2023-04-29T23:48:03.799Z,1.10
2023-04-29T23:50:31.648Z,1.20
2023-04-29T23:52:59.411Z,0.83
2023-04-29T23:55:27.180Z,0.70
2023-04-29T23:57:56.378Z,0.87
